createdAt,value
2022-10-04T00:01:50.455Z,3.13
2022-10-04T00:09:30.942Z,2.15
2022-10-04T00:17:11.829Z,2.53
2022-10-04T00:25:21.229Z,2.70
2022-10-04T00:33:02.648Z,3.40
2022-10-04T00:40:46.515Z,3.33
2022-10-04T00:48:34.593Z,2.75
2022-10-04T00:56:13.107Z,2.63
2022-10-04T01:03:47.950Z,2.55
2022-10-04T01:11:28.143Z,3.25
2022-10-04T01:19:29.666Z,3.17
2022-10-04T01:27:06.014Z,3.00
2022-10-04T01:34:41.998Z,2.53
2022-10-04T01:42:22.631Z,2.70
2022-10-04T01:49:59.936Z,2.75
2022-10-04T01:57:39.411Z,2.67
2022-10-04T02:05:16.871Z,2.20
2022-10-04T02:12:55.331Z,2.17
2022-10-04T02:20:29.309Z,2.38
2022-10-04T02:28:05.159Z,1.67
2022-10-04T02:35:45.826Z,2.08
2022-10-04T02:43:26.132Z,2.22
2022-10-04T02:51:07.807Z,2.30
2022-10-04T02:58:43.908Z,1.70
2022-10-04T03:06:20.923Z,1.80
2022-10-04T03:14:00.179Z,2.00
2022-10-04T03:21:35.050Z,2.25
2022-10-04T03:29:12.735Z,2.40
2022-10-04T03:36:48.176Z,1.92
2022-10-04T03:44:26.852Z,2.42
2022-10-04T03:52:02.112Z,2.33
2022-10-04T03:59:37.591Z,2.03
2022-10-04T04:07:15.845Z,2.05
2022-10-04T04:14:53.233Z,2.35
2022-10-04T04:22:31.319Z,2.55
2022-10-04T04:30:09.296Z,1.58
2022-10-04T04:37:43.053Z,2.47
2022-10-04T04:45:22.819Z,2.30
2022-10-04T04:53:01.643Z,1.90
2022-10-04T05:00:39.407Z,1.58
2022-10-04T05:08:17.280Z,2.30
2022-10-04T05:15:55.972Z,2.42
2022-10-04T05:23:29.831Z,2.03
2022-10-04T05:31:21.565Z,2.30
2022-10-04T05:39:03.800Z,1.92
2022-10-04T05:46:43.889Z,2.60
2022-10-04T05:54:22.315Z,2.72
2022-10-04T06:02:06.618Z,2.28
2022-10-04T06:10:03.300Z,2.38
2022-10-04T06:17:57.603Z,2.88
2022-10-04T06:25:37.971Z,3.30
2022-10-04T06:33:30.472Z,3.10
2022-10-04T06:41:43.392Z,2.30
2022-10-04T06:49:32.150Z,2.88
2022-10-04T06:57:37.101Z,3.20
2022-10-04T07:05:30.178Z,2.90
2022-10-04T07:13:29.353Z,4.10
2022-10-04T07:21:09.678Z,2.90
2022-10-04T07:29:03.371Z,4.05
2022-10-04T07:36:46.823Z,3.50
2022-10-04T07:44:30.574Z,4.97
2022-10-04T07:52:25.946Z,4.28
2022-10-04T08:00:05.720Z,4.78
2022-10-04T08:07:54.757Z,4.13
2022-10-04T08:15:38.057Z,3.78
2022-10-04T08:23:42.119Z,3.05
2022-10-04T08:31:28.785Z,3.83
2022-10-04T08:39:17.988Z,2.97
2022-10-04T08:47:28.786Z,2.05
2022-10-04T08:55:50.419Z,2.28
2022-10-04T09:04:05.386Z,2.67
2022-10-04T09:11:52.128Z,2.35
2022-10-04T09:19:44.353Z,2.42
2022-10-04T09:27:54.336Z,2.97
2022-10-04T09:35:51.427Z,2.63
2022-10-04T09:43:51.445Z,2.60
2022-10-04T09:51:45.271Z,2.65
2022-10-04T09:59:58.494Z,2.63
2022-10-04T10:07:46.540Z,2.10
2022-10-04T10:15:29.952Z,2.17
2022-10-04T10:23:38.930Z,2.70
2022-10-04T10:31:31.142Z,2.38
2022-10-04T10:39:34.358Z,1.85
2022-10-04T10:47:26.202Z,2.08
2022-10-04T10:55:25.398Z,1.98
2022-10-04T11:03:25.458Z,2.80
2022-10-04T11:11:17.846Z,1.95
2022-10-04T11:19:23.358Z,2.25
2022-10-04T11:27:28.662Z,1.87
2022-10-04T11:35:47.470Z,1.97
2022-10-04T11:43:53.462Z,1.58
2022-10-04T11:52:02.297Z,1.73
2022-10-04T11:59:50.991Z,1.83
2022-10-04T12:07:34.625Z,1.25
2022-10-04T12:15:34.862Z,1.85
2022-10-04T12:23:31.032Z,1.63
2022-10-04T12:31:23.204Z,1.27
2022-10-04T12:39:09.526Z,1.45
2022-10-04T12:46:58.060Z,1.08
2022-10-04T12:54:38.878Z,1.30
2022-10-04T13:02:33.473Z,1.67
2022-10-04T13:10:31.123Z,1.08
2022-10-04T13:18:19.010Z,0.88
2022-10-04T13:26:08.209Z,0.90
2022-10-04T13:33:51.441Z,1.08
2022-10-04T13:41:40.970Z,0.75
2022-10-04T13:49:30.818Z,0.82
2022-10-04T13:57:19.247Z,1.00
2022-10-04T14:05:34.635Z,0.77
2022-10-04T14:13:45.264Z,0.82
2022-10-04T14:21:54.037Z,0.90
2022-10-04T14:30:06.216Z,0.90
2022-10-04T14:38:26.648Z,0.70
2022-10-04T14:46:16.865Z,0.80
2022-10-04T14:54:01.426Z,0.95
2022-10-04T15:01:40.247Z,1.08
2022-10-04T15:09:28.321Z,0.80
2022-10-04T15:17:04.730Z,0.73
2022-10-04T15:24:51.189Z,0.60
2022-10-04T15:32:36.210Z,1.40
2022-10-04T15:40:27.751Z,1.17
2022-10-04T15:48:11.680Z,0.85
2022-10-04T15:56:02.956Z,0.80
2022-10-04T16:03:47.208Z,1.08
2022-10-04T16:11:47.097Z,1.05
2022-10-04T16:19:33.803Z,1.30
2022-10-04T16:27:24.298Z,1.40
2022-10-04T16:35:01.396Z,1.63
2022-10-04T16:42:48.609Z,1.65
2022-10-04T16:50:54.430Z,2.28
2022-10-04T17:06:37.828Z,1.70
2022-10-04T17:14:36.207Z,1.88
2022-10-04T17:22:24.510Z,2.42
2022-10-04T17:30:12.944Z,2.70
2022-10-04T17:37:59.925Z,2.60
2022-10-04T17:45:48.494Z,2.30
2022-10-04T17:53:47.142Z,2.45
2022-10-04T18:01:30.087Z,2.97
2022-10-04T18:09:17.181Z,3.47
2022-10-04T18:16:57.616Z,3.00
2022-10-04T18:24:32.945Z,3.22
2022-10-04T18:32:33.342Z,2.65
2022-10-04T18:40:17.864Z,4.28
2022-10-04T18:47:52.687Z,6.03
2022-10-04T18:55:38.961Z,6.32
2022-10-04T19:03:25.276Z,5.90
2022-10-04T19:11:05.004Z,5.68
2022-10-04T19:18:48.271Z,4.82
2022-10-04T19:26:33.021Z,4.63
2022-10-04T19:34:13.590Z,4.33
2022-10-04T19:41:57.611Z,3.80
2022-10-04T19:49:44.083Z,4.40
2022-10-04T19:57:29.437Z,3.58
2022-10-04T20:12:40.273Z,3.58
2022-10-04T20:20:16.456Z,4.55
2022-10-04T20:28:06.527Z,3.90
2022-10-04T20:36:09.154Z,3.97
2022-10-04T20:43:56.160Z,3.88
2022-10-04T20:51:33.233Z,4.35
2022-10-04T20:59:16.702Z,4.63
2022-10-04T21:06:53.476Z,3.97
2022-10-04T21:14:29.882Z,4.13
2022-10-04T21:22:05.317Z,4.03
2022-10-04T21:29:40.809Z,3.85
2022-10-04T21:37:14.561Z,3.70
2022-10-04T21:44:49.822Z,3.25
2022-10-04T21:52:23.516Z,3.85
2022-10-04T21:59:58.457Z,3.33
2022-10-04T22:07:32.211Z,3.28
2022-10-04T22:15:08.143Z,3.22
2022-10-04T22:22:41.902Z,3.30
2022-10-04T22:30:23.728Z,3.35
2022-10-04T22:37:58.038Z,3.92
2022-10-04T22:45:33.703Z,3.27
2022-10-04T22:53:13.207Z,3.80
2022-10-04T23:00:48.899Z,3.55
2022-10-04T23:08:22.723Z,3.72
2022-10-04T23:16:01.182Z,2.83
2022-10-04T23:23:34.918Z,2.83
2022-10-04T23:31:17.821Z,3.22
2022-10-04T23:38:56.740Z,3.42
2022-10-04T23:46:32.313Z,2.95
2022-10-04T23:54:07.280Z,3.30
